Terminal Aerodrome Forecast
Issued by NWS

Home | Current Version | Previous Version | Text Only | Print | Product List | Glossary On
Versions: 1 2 3 4 5 6 7 8 9 10 11 12 13
000
FTUS46 KSTO 311100
TAFSCK
TAF
KSCK 311121Z 3112/0112 VRB05KT P6SM BKN150
     FM312100 30009KT P6SM -RA OVC050
      TEMPO 3121/0101 3SM RA OVC015
     FM010300 27011KT P6SM -SHRA OVC050=

USA.gov is the U.S. government's official web portal to all federal, state and local government web resources and services.